sensor_id;sensor_type;location;lat;lon;timestamp;P1;durP1;ratioP1;P2;durP2;ratioP2
59310;SDS011;45078;51.654;21.250;2022-12-29T00:01:00;11.10;;;5.45;;
59310;SDS011;45078;51.654;21.250;2022-12-29T00:03:26;10.82;;;5.43;;
59310;SDS011;45078;51.654;21.250;2022-12-29T00:05:55;16.38;;;6.00;;
59310;SDS011;45078;51.654;21.250;2022-12-29T00:08:22;13.57;;;5.13;;
59310;SDS011;45078;51.654;21.250;2022-12-29T00:11:07;8.65;;;4.63;;
59310;SDS011;45078;51.654;21.250;2022-12-29T00:13:34;11.88;;;5.50;;
59310;SDS011;45078;51.654;21.250;2022-12-29T00:16:18;12.30;;;4.53;;
59310;SDS011;45078;51.654;21.250;2022-12-29T00:18:44;14.82;;;5.10;;
59310;SDS011;45078;51.654;21.250;2022-12-29T00:21:14;10.75;;;5.45;;
59310;SDS011;45078;51.654;21.250;2022-12-29T00:23:59;12.80;;;5.45;;
59310;SDS011;45078;51.654;21.250;2022-12-29T00:29:48;8.18;;;2.83;;
59310;SDS011;45078;51.654;21.250;2022-12-29T00:32:33;13.82;;;5.82;;
59310;SDS011;45078;51.654;21.250;2022-12-29T00:35:25;7.38;;;3.53;;
59310;SDS011;45078;51.654;21.250;2022-12-29T00:37:54;10.23;;;5.18;;
59310;SDS011;45078;51.654;21.250;2022-12-29T00:40:40;6.65;;;3.83;;
59310;SDS011;45078;51.654;21.250;2022-12-29T00:43:25;14.07;;;5.32;;
59310;SDS011;45078;51.654;21.250;2022-12-29T00:46:09;9.77;;;5.15;;
59310;SDS011;45078;51.654;21.250;2022-12-29T00:48:35;12.73;;;4.88;;
59310;SDS011;45078;51.654;21.250;2022-12-29T00:51:19;11.55;;;5.07;;
59310;SDS011;45078;51.654;21.250;2022-12-29T00:53:45;9.15;;;4.60;;
59310;SDS011;45078;51.654;21.250;2022-12-29T00:56:11;12.68;;;4.95;;
59310;SDS011;45078;51.654;21.250;2022-12-29T00:58:37;9.90;;;4.60;;
59310;SDS011;45078;51.654;21.250;2022-12-29T01:01:03;12.68;;;5.40;;
59310;SDS011;45078;51.654;21.250;2022-12-29T01:03:30;11.52;;;4.75;;
59310;SDS011;45078;51.654;21.250;2022-12-29T01:05:59;11.15;;;4.47;;
59310;SDS011;45078;51.654;21.250;2022-12-29T01:08:29;11.40;;;5.18;;
59310;SDS011;45078;51.654;21.250;2022-12-29T01:10:59;11.30;;;4.47;;
59310;SDS011;45078;51.654;21.250;2022-12-29T01:13:38;13.27;;;3.63;;
59310;SDS011;45078;51.654;21.250;2022-12-29T01:16:06;5.07;;;3.10;;
59310;SDS011;45078;51.654;21.250;2022-12-29T01:18:32;11.90;;;3.97;;
59310;SDS011;45078;51.654;21.250;2022-12-29T01:20:59;10.82;;;5.05;;
59310;SDS011;45078;51.654;21.250;2022-12-29T01:23:26;8.00;;;3.65;;
59310;SDS011;45078;51.654;21.250;2022-12-29T01:25:52;9.43;;;4.55;;
59310;SDS011;45078;51.654;21.250;2022-12-29T01:28:18;8.60;;;3.53;;
59310;SDS011;45078;51.654;21.250;2022-12-29T01:30:43;12.38;;;4.72;;
59310;SDS011;45078;51.654;21.250;2022-12-29T01:33:09;4.35;;;2.88;;
59310;SDS011;45078;51.654;21.250;2022-12-29T01:35:35;6.82;;;4.32;;
59310;SDS011;45078;51.654;21.250;2022-12-29T01:38:01;15.90;;;4.60;;
59310;SDS011;45078;51.654;21.250;2022-12-29T01:40:27;16.52;;;4.85;;
59310;SDS011;45078;51.654;21.250;2022-12-29T01:42:56;7.95;;;3.35;;
59310;SDS011;45078;51.654;21.250;2022-12-29T01:45:22;9.00;;;4.50;;
59310;SDS011;45078;51.654;21.250;2022-12-29T01:50:33;6.63;;;3.42;;
59310;SDS011;45078;51.654;21.250;2022-12-29T01:53:09;7.90;;;4.05;;
59310;SDS011;45078;51.654;21.250;2022-12-29T01:55:42;6.88;;;3.78;;
59310;SDS011;45078;51.654;21.250;2022-12-29T01:58:13;6.47;;;2.70;;
59310;SDS011;45078;51.654;21.250;2022-12-29T02:00:43;6.97;;;3.55;;
59310;SDS011;45078;51.654;21.250;2022-12-29T02:03:09;12.82;;;3.80;;
59310;SDS011;45078;51.654;21.250;2022-12-29T02:05:38;11.30;;;3.55;;
59310;SDS011;45078;51.654;21.250;2022-12-29T02:08:09;5.88;;;3.03;;
59310;SDS011;45078;51.654;21.250;2022-12-29T02:10:36;6.72;;;3.13;;
59310;SDS011;45078;51.654;21.250;2022-12-29T02:13:02;7.32;;;2.58;;
59310;SDS011;45078;51.654;21.250;2022-12-29T02:15:37;7.63;;;3.60;;
59310;SDS011;45078;51.654;21.250;2022-12-29T02:30:48;3.80;;;2.00;;
59310;SDS011;45078;51.654;21.250;2022-12-29T02:39:23;6.47;;;2.70;;
59310;SDS011;45078;51.654;21.250;2022-12-29T02:42:44;11.23;;;3.63;;
59310;SDS011;45078;51.654;21.250;2022-12-29T02:44:56;5.95;;;3.17;;
59310;SDS011;45078;51.654;21.250;2022-12-29T02:53:37;6.80;;;3.55;;
59310;SDS011;45078;51.654;21.250;2022-12-29T02:56:22;7.25;;;3.80;;
59310;SDS011;45078;51.654;21.250;2022-12-29T02:58:48;12.40;;;4.53;;
59310;SDS011;45078;51.654;21.250;2022-12-29T03:04:10;6.38;;;2.60;;
59310;SDS011;45078;51.654;21.250;2022-12-29T03:15:27;10.90;;;3.33;;
59310;SDS011;45078;51.654;21.250;2022-12-29T03:18:23;8.50;;;3.97;;
59310;SDS011;45078;51.654;21.250;2022-12-29T03:20:53;6.10;;;3.30;;
59310;SDS011;45078;51.654;21.250;2022-12-29T03:23:23;5.10;;;2.90;;
59310;SDS011;45078;51.654;21.250;2022-12-29T03:25:52;6.55;;;3.42;;
59310;SDS011;45078;51.654;21.250;2022-12-29T03:28:25;8.07;;;4.30;;
59310;SDS011;45078;51.654;21.250;2022-12-29T03:30:57;9.18;;;3.45;;
59310;SDS011;45078;51.654;21.250;2022-12-29T03:33:25;6.78;;;3.88;;
59310;SDS011;45078;51.654;21.250;2022-12-29T03:35:54;8.85;;;3.47;;
59310;SDS011;45078;51.654;21.250;2022-12-29T03:39:01;7.57;;;3.88;;
59310;SDS011;45078;51.654;21.250;2022-12-29T03:41:25;9.32;;;3.80;;
59310;SDS011;45078;51.654;21.250;2022-12-29T03:43:55;6.03;;;3.17;;
59310;SDS011;45078;51.654;21.250;2022-12-29T03:46:21;8.70;;;3.75;;
59310;SDS011;45078;51.654;21.250;2022-12-29T03:48:47;5.15;;;2.67;;
59310;SDS011;45078;51.654;21.250;2022-12-29T03:51:12;5.63;;;2.97;;
59310;SDS011;45078;51.654;21.250;2022-12-29T03:53:38;8.57;;;4.30;;
59310;SDS011;45078;51.654;21.250;2022-12-29T03:56:04;9.07;;;3.90;;
59310;SDS011;45078;51.654;21.250;2022-12-29T03:58:30;6.55;;;3.38;;
59310;SDS011;45078;51.654;21.250;2022-12-29T04:00:56;7.40;;;3.00;;
59310;SDS011;45078;51.654;21.250;2022-12-29T04:03:22;7.15;;;3.28;;
59310;SDS011;45078;51.654;21.250;2022-12-29T04:05:48;11.63;;;4.45;;
59310;SDS011;45078;51.654;21.250;2022-12-29T04:08:14;8.90;;;4.28;;
59310;SDS011;45078;51.654;21.250;2022-12-29T04:10:39;7.45;;;3.55;;
59310;SDS011;45078;51.654;21.250;2022-12-29T04:13:05;6.95;;;3.35;;
59310;SDS011;45078;51.654;21.250;2022-12-29T04:15:31;11.20;;;4.25;;
59310;SDS011;45078;51.654;21.250;2022-12-29T04:17:57;4.50;;;2.40;;
59310;SDS011;45078;51.654;21.250;2022-12-29T04:20:23;9.07;;;3.55;;
59310;SDS011;45078;51.654;21.250;2022-12-29T04:23:07;14.10;;;4.40;;
59310;SDS011;45078;51.654;21.250;2022-12-29T04:25:33;13.25;;;4.43;;
59310;SDS011;45078;51.654;21.250;2022-12-29T04:27:59;6.28;;;3.50;;
59310;SDS011;45078;51.654;21.250;2022-12-29T04:30:25;12.52;;;4.35;;
59310;SDS011;45078;51.654;21.250;2022-12-29T04:32:51;8.82;;;3.65;;
59310;SDS011;45078;51.654;21.250;2022-12-29T04:35:17;12.50;;;3.25;;
59310;SDS011;45078;51.654;21.250;2022-12-29T04:37:43;10.65;;;4.85;;
59310;SDS011;45078;51.654;21.250;2022-12-29T04:40:09;9.85;;;4.50;;
59310;SDS011;45078;51.654;21.250;2022-12-29T04:42:35;7.97;;;3.70;;
59310;SDS011;45078;51.654;21.250;2022-12-29T04:45:01;8.52;;;3.45;;
59310;SDS011;45078;51.654;21.250;2022-12-29T04:47:27;8.98;;;3.83;;
59310;SDS011;45078;51.654;21.250;2022-12-29T04:49:53;15.82;;;4.57;;
59310;SDS011;45078;51.654;21.250;2022-12-29T04:52:19;6.57;;;4.10;;
59310;SDS011;45078;51.654;21.250;2022-12-29T04:54:45;9.02;;;4.18;;
59310;SDS011;45078;51.654;21.250;2022-12-29T04:57:11;12.45;;;4.07;;
59310;SDS011;45078;51.654;21.250;2022-12-29T04:59:37;9.70;;;3.85;;
59310;SDS011;45078;51.654;21.250;2022-12-29T05:02:05;10.55;;;4.30;;
59310;SDS011;45078;51.654;21.250;2022-12-29T05:04:31;8.35;;;3.50;;
59310;SDS011;45078;51.654;21.250;2022-12-29T05:06:57;3.53;;;2.33;;
59310;SDS011;45078;51.654;21.250;2022-12-29T05:09:22;7.53;;;4.10;;
59310;SDS011;45078;51.654;21.250;2022-12-29T05:11:49;14.23;;;4.60;;
59310;SDS011;45078;51.654;21.250;2022-12-29T05:14:14;10.68;;;4.28;;
59310;SDS011;45078;51.654;21.250;2022-12-29T05:16:40;8.82;;;4.05;;
59310;SDS011;45078;51.654;21.250;2022-12-29T05:19:06;7.72;;;3.25;;
59310;SDS011;45078;51.654;21.250;2022-12-29T05:21:32;6.95;;;3.58;;
59310;SDS011;45078;51.654;21.250;2022-12-29T05:23:58;6.75;;;3.38;;
59310;SDS011;45078;51.654;21.250;2022-12-29T05:26:23;8.60;;;3.53;;
59310;SDS011;45078;51.654;21.250;2022-12-29T05:28:49;9.60;;;3.83;;
59310;SDS011;45078;51.654;21.250;2022-12-29T05:31:15;8.95;;;3.75;;
59310;SDS011;45078;51.654;21.250;2022-12-29T05:33:41;8.98;;;3.58;;
59310;SDS011;45078;51.654;21.250;2022-12-29T05:36:07;10.85;;;3.88;;
59310;SDS011;45078;51.654;21.250;2022-12-29T05:38:34;6.90;;;2.88;;
59310;SDS011;45078;51.654;21.250;2022-12-29T05:41:00;5.63;;;2.55;;
59310;SDS011;45078;51.654;21.250;2022-12-29T05:43:26;6.45;;;2.55;;
59310;SDS011;45078;51.654;21.250;2022-12-29T05:45:52;9.05;;;4.07;;
59310;SDS011;45078;51.654;21.250;2022-12-29T05:48:18;3.58;;;2.50;;
59310;SDS011;45078;51.654;21.250;2022-12-29T05:50:48;9.07;;;3.22;;
59310;SDS011;45078;51.654;21.250;2022-12-29T05:53:14;6.47;;;2.80;;
59310;SDS011;45078;51.654;21.250;2022-12-29T05:55:40;7.50;;;3.72;;
59310;SDS011;45078;51.654;21.250;2022-12-29T05:58:06;5.03;;;2.88;;
59310;SDS011;45078;51.654;21.250;2022-12-29T06:00:32;6.13;;;2.95;;
59310;SDS011;45078;51.654;21.250;2022-12-29T06:02:57;4.60;;;2.75;;
59310;SDS011;45078;51.654;21.250;2022-12-29T06:05:23;5.47;;;2.90;;
59310;SDS011;45078;51.654;21.250;2022-12-29T06:07:49;5.53;;;3.35;;
59310;SDS011;45078;51.654;21.250;2022-12-29T06:10:14;4.78;;;2.47;;
59310;SDS011;45078;51.654;21.250;2022-12-29T06:12:40;8.85;;;3.60;;
59310;SDS011;45078;51.654;21.250;2022-12-29T06:15:06;7.32;;;2.53;;
59310;SDS011;45078;51.654;21.250;2022-12-29T06:17:32;7.38;;;3.40;;
59310;SDS011;45078;51.654;21.250;2022-12-29T06:19:58;8.23;;;3.90;;
59310;SDS011;45078;51.654;21.250;2022-12-29T06:22:24;6.80;;;3.40;;
59310;SDS011;45078;51.654;21.250;2022-12-29T06:24:50;3.88;;;2.05;;
59310;SDS011;45078;51.654;21.250;2022-12-29T06:27:15;4.97;;;3.30;;
59310;SDS011;45078;51.654;21.250;2022-12-29T06:29:41;3.80;;;2.35;;
59310;SDS011;45078;51.654;21.250;2022-12-29T06:32:08;10.30;;;3.17;;
59310;SDS011;45078;51.654;21.250;2022-12-29T06:34:34;5.68;;;3.22;;
59310;SDS011;45078;51.654;21.250;2022-12-29T06:37:00;6.57;;;3.28;;
59310;SDS011;45078;51.654;21.250;2022-12-29T06:39:27;7.07;;;3.10;;
59310;SDS011;45078;51.654;21.250;2022-12-29T06:41:53;6.40;;;3.05;;
59310;SDS011;45078;51.654;21.250;2022-12-29T06:44:19;9.25;;;2.83;;
59310;SDS011;45078;51.654;21.250;2022-12-29T06:46:46;6.20;;;3.13;;
59310;SDS011;45078;51.654;21.250;2022-12-29T06:49:12;7.95;;;2.88;;
59310;SDS011;45078;51.654;21.250;2022-12-29T06:51:38;6.38;;;3.55;;
59310;SDS011;45078;51.654;21.250;2022-12-29T06:54:04;8.32;;;3.90;;
59310;SDS011;45078;51.654;21.250;2022-12-29T06:56:29;9.68;;;3.40;;
59310;SDS011;45078;51.654;21.250;2022-12-29T06:58:55;10.48;;;3.30;;
59310;SDS011;45078;51.654;21.250;2022-12-29T07:01:21;6.90;;;2.72;;
59310;SDS011;45078;51.654;21.250;2022-12-29T07:03:47;6.82;;;3.15;;
59310;SDS011;45078;51.654;21.250;2022-12-29T07:06:13;5.60;;;2.88;;
59310;SDS011;45078;51.654;21.250;2022-12-29T07:08:38;6.93;;;3.63;;
59310;SDS011;45078;51.654;21.250;2022-12-29T07:11:05;8.23;;;3.55;;
59310;SDS011;45078;51.654;21.250;2022-12-29T07:13:31;7.43;;;3.40;;
59310;SDS011;45078;51.654;21.250;2022-12-29T07:15:56;4.88;;;2.38;;
59310;SDS011;45078;51.654;21.250;2022-12-29T07:18:22;7.80;;;3.28;;
59310;SDS011;45078;51.654;21.250;2022-12-29T07:20:49;20.77;;;3.67;;
59310;SDS011;45078;51.654;21.250;2022-12-29T07:23:14;11.35;;;3.65;;
59310;SDS011;45078;51.654;21.250;2022-12-29T07:25:40;7.32;;;3.50;;
59310;SDS011;45078;51.654;21.250;2022-12-29T07:28:06;5.85;;;3.22;;
59310;SDS011;45078;51.654;21.250;2022-12-29T07:30:32;9.27;;;3.28;;
59310;SDS011;45078;51.654;21.250;2022-12-29T07:32:58;8.68;;;4.07;;
59310;SDS011;45078;51.654;21.250;2022-12-29T07:35:24;3.67;;;2.25;;
59310;SDS011;45078;51.654;21.250;2022-12-29T07:37:50;5.43;;;2.88;;
59310;SDS011;45078;51.654;21.250;2022-12-29T07:40:15;8.68;;;3.90;;
59310;SDS011;45078;51.654;21.250;2022-12-29T07:42:41;6.15;;;3.00;;
59310;SDS011;45078;51.654;21.250;2022-12-29T07:45:07;12.13;;;3.85;;
59310;SDS011;45078;51.654;21.250;2022-12-29T07:47:34;6.75;;;3.47;;
59310;SDS011;45078;51.654;21.250;2022-12-29T07:50:00;5.88;;;3.28;;
59310;SDS011;45078;51.654;21.250;2022-12-29T07:52:25;5.95;;;3.50;;
59310;SDS011;45078;51.654;21.250;2022-12-29T07:54:51;9.23;;;3.65;;
59310;SDS011;45078;51.654;21.250;2022-12-29T07:57:17;9.70;;;3.97;;
59310;SDS011;45078;51.654;21.250;2022-12-29T07:59:42;8.35;;;3.80;;
59310;SDS011;45078;51.654;21.250;2022-12-29T08:02:11;5.78;;;3.08;;
59310;SDS011;45078;51.654;21.250;2022-12-29T08:04:37;8.45;;;4.35;;
59310;SDS011;45078;51.654;21.250;2022-12-29T08:07:03;7.82;;;3.15;;
59310;SDS011;45078;51.654;21.250;2022-12-29T08:09:29;6.57;;;3.65;;
59310;SDS011;45078;51.654;21.250;2022-12-29T08:11:55;7.35;;;3.58;;
59310;SDS011;45078;51.654;21.250;2022-12-29T08:14:20;6.97;;;2.72;;
59310;SDS011;45078;51.654;21.250;2022-12-29T08:16:46;6.63;;;3.05;;
59310;SDS011;45078;51.654;21.250;2022-12-29T08:19:12;8.07;;;3.95;;
59310;SDS011;45078;51.654;21.250;2022-12-29T08:21:39;9.85;;;3.78;;
59310;SDS011;45078;51.654;21.250;2022-12-29T08:24:05;5.75;;;2.90;;
59310;SDS011;45078;51.654;21.250;2022-12-29T08:26:31;4.80;;;2.50;;
59310;SDS011;45078;51.654;21.250;2022-12-29T08:28:57;7.18;;;3.45;;
59310;SDS011;45078;51.654;21.250;2022-12-29T08:31:23;9.60;;;3.85;;
59310;SDS011;45078;51.654;21.250;2022-12-29T08:33:49;9.70;;;3.22;;
59310;SDS011;45078;51.654;21.250;2022-12-29T08:36:15;5.38;;;3.28;;
59310;SDS011;45078;51.654;21.250;2022-12-29T08:38:41;9.60;;;3.92;;
59310;SDS011;45078;51.654;21.250;2022-12-29T08:41:07;6.70;;;3.22;;
59310;SDS011;45078;51.654;21.250;2022-12-29T08:43:33;8.43;;;4.07;;
59310;SDS011;45078;51.654;21.250;2022-12-29T08:45:59;8.43;;;3.70;;
59310;SDS011;45078;51.654;21.250;2022-12-29T08:48:25;6.28;;;3.88;;
59310;SDS011;45078;51.654;21.250;2022-12-29T08:50:51;6.72;;;3.28;;
59310;SDS011;45078;51.654;21.250;2022-12-29T08:53:17;6.53;;;3.33;;
59310;SDS011;45078;51.654;21.250;2022-12-29T08:55:45;6.35;;;3.40;;
59310;SDS011;45078;51.654;21.250;2022-12-29T08:58:11;6.50;;;3.13;;
59310;SDS011;45078;51.654;21.250;2022-12-29T09:00:40;8.85;;;3.95;;
59310;SDS011;45078;51.654;21.250;2022-12-29T09:03:06;7.38;;;2.72;;
59310;SDS011;45078;51.654;21.250;2022-12-29T09:05:32;8.88;;;3.65;;
59310;SDS011;45078;51.654;21.250;2022-12-29T09:07:58;7.72;;;3.20;;
59310;SDS011;45078;51.654;21.250;2022-12-29T09:10:24;8.98;;;3.40;;
59310;SDS011;45078;51.654;21.250;2022-12-29T09:12:49;2.83;;;2.15;;
59310;SDS011;45078;51.654;21.250;2022-12-29T09:15:15;6.97;;;3.67;;
59310;SDS011;45078;51.654;21.250;2022-12-29T09:17:41;7.03;;;3.80;;
59310;SDS011;45078;51.654;21.250;2022-12-29T09:20:08;7.68;;;3.08;;
59310;SDS011;45078;51.654;21.250;2022-12-29T09:22:39;2.92;;;1.65;;
59310;SDS011;45078;51.654;21.250;2022-12-29T09:25:05;7.68;;;3.33;;
59310;SDS011;45078;51.654;21.250;2022-12-29T09:27:31;5.82;;;2.75;;
59310;SDS011;45078;51.654;21.250;2022-12-29T09:29:57;5.93;;;2.75;;
59310;SDS011;45078;51.654;21.250;2022-12-29T09:32:23;4.20;;;1.98;;
59310;SDS011;45078;51.654;21.250;2022-12-29T09:34:48;5.35;;;2.45;;
59310;SDS011;45078;51.654;21.250;2022-12-29T09:37:14;7.53;;;3.33;;
59310;SDS011;45078;51.654;21.250;2022-12-29T09:39:40;5.72;;;2.67;;
59310;SDS011;45078;51.654;21.250;2022-12-29T09:42:07;7.93;;;3.50;;
59310;SDS011;45078;51.654;21.250;2022-12-29T09:47:25;8.60;;;3.67;;
59310;SDS011;45078;51.654;21.250;2022-12-29T09:53:20;4.32;;;2.42;;
59310;SDS011;45078;51.654;21.250;2022-12-29T09:55:55;6.57;;;3.28;;
59310;SDS011;45078;51.654;21.250;2022-12-29T09:58:34;5.88;;;2.90;;
59310;SDS011;45078;51.654;21.250;2022-12-29T10:03:59;13.73;;;3.47;;
59310;SDS011;45078;51.654;21.250;2022-12-29T10:09:19;4.15;;;2.33;;
59310;SDS011;45078;51.654;21.250;2022-12-29T10:25:41;7.10;;;2.83;;
59310;SDS011;45078;51.654;21.250;2022-12-29T10:28:50;5.10;;;2.92;;
59310;SDS011;45078;51.654;21.250;2022-12-29T10:30:56;3.55;;;1.92;;
59310;SDS011;45078;51.654;21.250;2022-12-29T10:33:39;3.38;;;2.28;;
59310;SDS011;45078;51.654;21.250;2022-12-29T10:36:29;4.95;;;3.03;;
59310;SDS011;45078;51.654;21.250;2022-12-29T10:42:13;7.35;;;3.55;;
59310;SDS011;45078;51.654;21.250;2022-12-29T10:44:48;5.15;;;3.13;;
59310;SDS011;45078;51.654;21.250;2022-12-29T10:47:15;8.25;;;2.45;;
59310;SDS011;45078;51.654;21.250;2022-12-29T10:49:45;7.18;;;3.22;;
59310;SDS011;45078;51.654;21.250;2022-12-29T10:52:13;8.82;;;3.20;;
59310;SDS011;45078;51.654;21.250;2022-12-29T10:54:46;5.97;;;2.78;;
59310;SDS011;45078;51.654;21.250;2022-12-29T10:57:36;5.20;;;3.00;;
59310;SDS011;45078;51.654;21.250;2022-12-29T11:05:37;3.83;;;2.53;;
59310;SDS011;45078;51.654;21.250;2022-12-29T11:08:27;4.55;;;2.40;;
59310;SDS011;45078;51.654;21.250;2022-12-29T11:11:01;5.15;;;2.67;;
59310;SDS011;45078;51.654;21.250;2022-12-29T11:13:33;9.55;;;3.15;;
59310;SDS011;45078;51.654;21.250;2022-12-29T11:16:11;5.78;;;2.65;;
59310;SDS011;45078;51.654;21.250;2022-12-29T11:18:37;6.70;;;3.13;;
59310;SDS011;45078;51.654;21.250;2022-12-29T11:24:05;4.53;;;2.40;;
59310;SDS011;45078;51.654;21.250;2022-12-29T11:26:43;9.45;;;4.50;;
59310;SDS011;45078;51.654;21.250;2022-12-29T11:31:43;6.07;;;2.78;;
59310;SDS011;45078;51.654;21.250;2022-12-29T11:34:24;5.85;;;2.72;;
59310;SDS011;45078;51.654;21.250;2022-12-29T11:36:53;4.63;;;2.60;;
59310;SDS011;45078;51.654;21.250;2022-12-29T11:39:25;4.45;;;2.20;;
59310;SDS011;45078;51.654;21.250;2022-12-29T11:41:54;8.07;;;4.10;;
59310;SDS011;45078;51.654;21.250;2022-12-29T11:44:20;8.27;;;3.00;;
59310;SDS011;45078;51.654;21.250;2022-12-29T11:46:48;6.43;;;2.67;;
59310;SDS011;45078;51.654;21.250;2022-12-29T11:49:19;7.57;;;2.72;;
59310;SDS011;45078;51.654;21.250;2022-12-29T11:51:49;7.28;;;2.30;;
59310;SDS011;45078;51.654;21.250;2022-12-29T11:54:18;3.63;;;1.88;;
59310;SDS011;45078;51.654;21.250;2022-12-29T11:57:12;7.50;;;2.67;;
59310;SDS011;45078;51.654;21.250;2022-12-29T11:59:41;7.07;;;2.97;;
59310;SDS011;45078;51.654;21.250;2022-12-29T12:04:59;6.68;;;2.60;;
59310;SDS011;45078;51.654;21.250;2022-12-29T12:07:45;10.75;;;3.42;;
59310;SDS011;45078;51.654;21.250;2022-12-29T12:10:20;7.22;;;3.38;;
59310;SDS011;45078;51.654;21.250;2022-12-29T12:16:21;9.68;;;4.45;;
59310;SDS011;45078;51.654;21.250;2022-12-29T12:18:57;5.43;;;2.75;;
59310;SDS011;45078;51.654;21.250;2022-12-29T12:32:39;4.78;;;2.55;;
59310;SDS011;45078;51.654;21.250;2022-12-29T12:35:13;2.65;;;1.48;;
59310;SDS011;45078;51.654;21.250;2022-12-29T12:55:25;7.28;;;3.08;;
59310;SDS011;45078;51.654;21.250;2022-12-29T13:09:32;6.20;;;2.97;;
59310;SDS011;45078;51.654;21.250;2022-12-29T13:15:21;5.90;;;3.28;;
59310;SDS011;45078;51.654;21.250;2022-12-29T13:24:00;4.63;;;2.78;;
59310;SDS011;45078;51.654;21.250;2022-12-29T13:26:46;7.20;;;3.25;;
59310;SDS011;45078;51.654;21.250;2022-12-29T13:31:50;8.10;;;3.15;;
59310;SDS011;45078;51.654;21.250;2022-12-29T13:37:35;8.85;;;3.38;;
59310;SDS011;45078;51.654;21.250;2022-12-29T13:40:15;9.65;;;3.58;;
59310;SDS011;45078;51.654;21.250;2022-12-29T13:42:44;5.20;;;2.63;;
59310;SDS011;45078;51.654;21.250;2022-12-29T13:45:13;9.15;;;3.13;;
59310;SDS011;45078;51.654;21.250;2022-12-29T13:47:54;7.10;;;3.47;;
59310;SDS011;45078;51.654;21.250;2022-12-29T13:50:21;7.15;;;3.33;;
59310;SDS011;45078;51.654;21.250;2022-12-29T13:56:06;5.97;;;3.15;;
59310;SDS011;45078;51.654;21.250;2022-12-29T14:01:48;7.82;;;3.22;;
59310;SDS011;45078;51.654;21.250;2022-12-29T14:04:21;6.13;;;3.47;;
59310;SDS011;45078;51.654;21.250;2022-12-29T14:12:31;9.27;;;3.00;;
59310;SDS011;45078;51.654;21.250;2022-12-29T14:17:36;8.88;;;3.92;;
59310;SDS011;45078;51.654;21.250;2022-12-29T14:20:03;10.43;;;4.38;;
59310;SDS011;45078;51.654;21.250;2022-12-29T14:22:55;9.45;;;3.33;;
59310;SDS011;45078;51.654;21.250;2022-12-29T14:29:00;6.55;;;3.67;;
59310;SDS011;45078;51.654;21.250;2022-12-29T14:33:41;7.05;;;3.80;;
59310;SDS011;45078;51.654;21.250;2022-12-29T14:36:34;7.47;;;3.72;;
59310;SDS011;45078;51.654;21.250;2022-12-29T14:39:03;9.95;;;3.85;;
59310;SDS011;45078;51.654;21.250;2022-12-29T14:41:58;12.90;;;4.05;;
59310;SDS011;45078;51.654;21.250;2022-12-29T14:50:04;7.28;;;2.80;;
59310;SDS011;45078;51.654;21.250;2022-12-29T14:52:32;9.30;;;4.40;;
59310;SDS011;45078;51.654;21.250;2022-12-29T14:58:27;8.88;;;3.28;;
59310;SDS011;45078;51.654;21.250;2022-12-29T15:00:53;8.98;;;4.00;;
59310;SDS011;45078;51.654;21.250;2022-12-29T15:03:21;7.20;;;3.00;;
59310;SDS011;45078;51.654;21.250;2022-12-29T15:05:54;12.55;;;5.47;;
59310;SDS011;45078;51.654;21.250;2022-12-29T15:08:26;7.13;;;3.95;;
59310;SDS011;45078;51.654;21.250;2022-12-29T15:11:04;9.23;;;4.13;;
59310;SDS011;45078;51.654;21.250;2022-12-29T15:13:39;10.65;;;4.47;;
59310;SDS011;45078;51.654;21.250;2022-12-29T15:18:56;7.68;;;3.30;;
59310;SDS011;45078;51.654;21.250;2022-12-29T15:21:27;9.00;;;4.47;;
59310;SDS011;45078;51.654;21.250;2022-12-29T15:23:53;9.95;;;3.97;;
59310;SDS011;45078;51.654;21.250;2022-12-29T15:26:20;10.75;;;4.70;;
59310;SDS011;45078;51.654;21.250;2022-12-29T15:28:49;14.32;;;5.35;;
59310;SDS011;45078;51.654;21.250;2022-12-29T15:31:23;12.68;;;4.38;;
59310;SDS011;45078;51.654;21.250;2022-12-29T15:33:52;13.63;;;4.25;;
59310;SDS011;45078;51.654;21.250;2022-12-29T15:36:20;11.02;;;4.72;;
59310;SDS011;45078;51.654;21.250;2022-12-29T15:38:51;13.02;;;5.00;;
59310;SDS011;45078;51.654;21.250;2022-12-29T15:46:44;13.30;;;4.93;;
59310;SDS011;45078;51.654;21.250;2022-12-29T15:49:11;12.10;;;5.47;;
59310;SDS011;45078;51.654;21.250;2022-12-29T15:51:41;14.38;;;5.85;;
59310;SDS011;45078;51.654;21.250;2022-12-29T15:56:57;13.38;;;6.22;;
59310;SDS011;45078;51.654;21.250;2022-12-29T16:01:50;19.05;;;7.97;;
59310;SDS011;45078;51.654;21.250;2022-12-29T16:04:16;17.73;;;6.75;;
59310;SDS011;45078;51.654;21.250;2022-12-29T16:06:44;13.20;;;5.57;;
59310;SDS011;45078;51.654;21.250;2022-12-29T16:09:29;16.55;;;6.57;;
59310;SDS011;45078;51.654;21.250;2022-12-29T16:12:01;17.50;;;6.72;;
59310;SDS011;45078;51.654;21.250;2022-12-29T16:14:42;13.80;;;6.82;;
59310;SDS011;45078;51.654;21.250;2022-12-29T16:17:15;15.75;;;7.28;;
59310;SDS011;45078;51.654;21.250;2022-12-29T16:19:51;13.20;;;5.15;;
59310;SDS011;45078;51.654;21.250;2022-12-29T16:25:54;15.00;;;7.57;;
59310;SDS011;45078;51.654;21.250;2022-12-29T16:28:17;19.42;;;7.60;;
59310;SDS011;45078;51.654;21.250;2022-12-29T16:31:35;16.70;;;7.53;;
59310;SDS011;45078;51.654;21.250;2022-12-29T16:33:54;19.10;;;7.03;;
59310;SDS011;45078;51.654;21.250;2022-12-29T16:36:33;13.20;;;7.15;;
59310;SDS011;45078;51.654;21.250;2022-12-29T16:41:57;12.95;;;5.65;;
59310;SDS011;45078;51.654;21.250;2022-12-29T16:44:24;20.88;;;7.75;;
59310;SDS011;45078;51.654;21.250;2022-12-29T16:46:57;19.30;;;7.63;;
59310;SDS011;45078;51.654;21.250;2022-12-29T16:49:27;18.88;;;8.50;;
59310;SDS011;45078;51.654;21.250;2022-12-29T16:51:55;16.40;;;7.57;;
59310;SDS011;45078;51.654;21.250;2022-12-29T16:54:28;17.60;;;7.47;;
59310;SDS011;45078;51.654;21.250;2022-12-29T16:56:59;18.23;;;7.57;;
59310;SDS011;45078;51.654;21.250;2022-12-29T16:59:42;15.43;;;7.07;;
59310;SDS011;45078;51.654;21.250;2022-12-29T17:02:18;14.20;;;6.18;;
59310;SDS011;45078;51.654;21.250;2022-12-29T17:04:47;20.63;;;8.07;;
59310;SDS011;45078;51.654;21.250;2022-12-29T17:07:15;20.77;;;8.57;;
59310;SDS011;45078;51.654;21.250;2022-12-29T17:09:43;24.88;;;8.20;;
59310;SDS011;45078;51.654;21.250;2022-12-29T17:12:13;18.30;;;8.10;;
59310;SDS011;45078;51.654;21.250;2022-12-29T17:15:01;21.13;;;8.93;;
59310;SDS011;45078;51.654;21.250;2022-12-29T17:17:44;19.08;;;7.97;;
59310;SDS011;45078;51.654;21.250;2022-12-29T17:22:45;18.38;;;8.60;;
59310;SDS011;45078;51.654;21.250;2022-12-29T17:25:12;17.33;;;7.30;;
59310;SDS011;45078;51.654;21.250;2022-12-29T17:27:41;13.73;;;6.95;;
59310;SDS011;45078;51.654;21.250;2022-12-29T17:30:12;18.10;;;8.18;;
59310;SDS011;45078;51.654;21.250;2022-12-29T17:32:42;17.50;;;7.80;;
59310;SDS011;45078;51.654;21.250;2022-12-29T17:35:13;18.73;;;6.95;;
59310;SDS011;45078;51.654;21.250;2022-12-29T17:37:44;18.33;;;8.02;;
59310;SDS011;45078;51.654;21.250;2022-12-29T17:42:44;21.40;;;8.55;;
59310;SDS011;45078;51.654;21.250;2022-12-29T17:45:22;22.95;;;8.18;;
59310;SDS011;45078;51.654;21.250;2022-12-29T17:47:50;23.40;;;8.50;;
59310;SDS011;45078;51.654;21.250;2022-12-29T17:50:20;23.83;;;9.35;;
59310;SDS011;45078;51.654;21.250;2022-12-29T17:52:56;21.80;;;9.35;;
59310;SDS011;45078;51.654;21.250;2022-12-29T17:55:24;23.10;;;9.25;;
59310;SDS011;45078;51.654;21.250;2022-12-29T17:57:51;16.77;;;7.88;;
59310;SDS011;45078;51.654;21.250;2022-12-29T18:00:28;21.33;;;8.90;;
59310;SDS011;45078;51.654;21.250;2022-12-29T18:02:55;17.17;;;7.07;;
59310;SDS011;45078;51.654;21.250;2022-12-29T18:05:23;18.27;;;7.82;;